African Loon — 3EFF9 — position and weather

sailwx.info

Track history (hours):
 
Tides and Currents Weather Stations Pressure Air Temp Water Temp Dewpoint Dewpoint Depression Visibility Wind Speed Wind Dir Waves Ship Positions

African Loon

Last reported at 2016-Apr-02 18:10 UTC. Time now 2016-May-04 15:32 UTC.
Position N 01°16' E 104°14'.
Warning: this ship's position is 31 days out of date.

Length 200 m; draft 8.4 m.

Type: Cargo ship. MMSI: 374319000.

Date/timePositionNaut miles runAvg speedWind from/ knotsBaromVisibWave heightAir tempDewpointWater temp
2016-Apr-02 18:10N 01°16' E 104°14'710.8
2016-Apr-02 17:29N 01°15' E 104°06'8 8.6
2016-Apr-02 16:33N 01°16' E 103°58'3 3.0
2016-Apr-02 15:33N 01°17' E 103°56'0 0.0
2016-Apr-02 14:27N 01°17' E 103°56'0 0.0
2016-Apr-02 13:21N 01°17' E 103°56'0 0.0
2016-Apr-02 12:27N 01°17' E 103°56'0 0.0
2016-Apr-02 11:27N 01°17' E 103°56'0 0.0
2016-Apr-02 10:27N 01°17' E 103°56'0 0.0
2016-Apr-02 09:27N 01°17' E 103°56'0 0.0
2016-Apr-02 07:33N 01°17' E 103°56'0 0.1
2016-Apr-02 06:33N 01°17' E 103°56'0 0.0
2016-Apr-02 05:33N 01°17' E 103°56'0 0.1
2016-Apr-02 04:33N 01°17' E 103°56'3 3.0
2016-Apr-02 03:31N 01°16' E 103°59'5 4.9
2016-Apr-02 02:33N 01°16' E 104°04'5 5.4
2016-Apr-02 01:33N 01°17' E 104°09'7 0.2
2016-Mar-31 22:11N 01°16' E 104°15'610.3
2016-Mar-31 21:33N 01°16' E 104°09'4 4.3
2016-Mar-31 20:33N 01°19' E 104°06'10 9.2
2016-Mar-31 19:27N 01°24' E 103°57'  
2016-Mar-28 09:33N 01°25' E 103°56'9 8.6
2016-Mar-28 08:28N 01°21' E 104°04'4 2.2
2016-Mar-28 06:32N 01°19' E 104°08'1 0.3
2016-Mar-28 02:26N 01°18' E 104°07'  
Track history (hours):
 
Tides and Currents Weather Stations Pressure Air Temp Water Temp Dewpoint Dewpoint Depression Visibility Wind Speed Wind Dir Waves Ship Positions

African Loon

Last reported at 2016-Apr-02 18:10 UTC. Time now 2016-May-04 15:32 UTC.
Position N 01°16' E 104°14'.
Warning: this ship's position is 31 days out of date.

Length 200 m; draft 8.4 m.

Type: Cargo ship. MMSI: 374319000.

Date/timePositionNaut miles runAvg speedWind from/ knotsBaromVisibWave heightAir tempDewpointWater temp
2016-Apr-02 18:10N 01°16' E 104°14'710.8
2016-Apr-02 17:29N 01°15' E 104°06'8 8.6
2016-Apr-02 16:33N 01°16' E 103°58'3 3.0
2016-Apr-02 15:33N 01°17' E 103°56'0 0.0
2016-Apr-02 14:27N 01°17' E 103°56'0 0.0
2016-Apr-02 13:21N 01°17' E 103°56'0 0.0
2016-Apr-02 12:27N 01°17' E 103°56'0 0.0
2016-Apr-02 11:27N 01°17' E 103°56'0 0.0
2016-Apr-02 10:27N 01°17' E 103°56'0 0.0
2016-Apr-02 09:27N 01°17' E 103°56'0 0.0
2016-Apr-02 07:33N 01°17' E 103°56'0 0.1
2016-Apr-02 06:33N 01°17' E 103°56'0 0.0
2016-Apr-02 05:33N 01°17' E 103°56'0 0.1
2016-Apr-02 04:33N 01°17' E 103°56'3 3.0
2016-Apr-02 03:31N 01°16' E 103°59'5 4.9
2016-Apr-02 02:33N 01°16' E 104°04'5 5.4
2016-Apr-02 01:33N 01°17' E 104°09'7 0.2
2016-Mar-31 22:11N 01°16' E 104°15'610.3
2016-Mar-31 21:33N 01°16' E 104°09'4 4.3
2016-Mar-31 20:33N 01°19' E 104°06'10 9.2
2016-Mar-31 19:27N 01°24' E 103°57'  
2016-Mar-28 09:33N 01°25' E 103°56'9 8.6
2016-Mar-28 08:28N 01°21' E 104°04'4 2.2
2016-Mar-28 06:32N 01°19' E 104°08'1 0.3
2016-Mar-28 02:26N 01°18' E 104°07'  

Dump ship's entire track history